createdAt,value
2019-02-15T00:00:37.765Z,93.12
2019-02-15T00:01:38.006Z,93.44
2019-02-15T00:02:38.218Z,93.12
2019-02-15T00:03:38.462Z,93.23
2019-02-15T00:04:38.802Z,93.02
2019-02-15T00:05:38.908Z,93.23
2019-02-15T00:06:39.151Z,93.02
2019-02-15T00:07:39.364Z,93.23
2019-02-15T00:08:39.581Z,92.91
2019-02-15T00:09:39.841Z,93.27
2019-02-15T00:10:40.084Z,93.48
2019-02-15T00:11:40.328Z,93.16
2019-02-15T00:12:40.655Z,93.00
2019-02-15T00:13:40.742Z,93.27
2019-02-15T00:14:41.018Z,93.73
2019-02-15T00:15:41.239Z,94.57
2019-02-15T00:16:41.477Z,94.04
2019-02-15T00:17:41.689Z,94.35
2019-02-15T00:18:41.923Z,94.15
2019-02-15T00:19:42.154Z,94.35
2019-02-15T00:20:42.475Z,94.25
2019-02-15T00:21:42.621Z,94.67
2019-02-15T00:22:42.826Z,94.71
2019-02-15T00:23:43.067Z,94.61
2019-02-15T00:24:43.311Z,95.09
2019-02-15T00:25:43.518Z,94.67
2019-02-15T00:26:43.773Z,94.46
2019-02-15T00:27:44.002Z,94.57
2019-02-15T00:28:44.275Z,94.78
2019-02-15T00:29:44.456Z,95.09
2019-02-15T00:30:44.693Z,94.78
2019-02-15T00:31:44.931Z,94.84
2019-02-15T00:32:45.143Z,94.78
2019-02-15T00:33:45.376Z,94.04
2019-02-15T00:34:45.628Z,94.04
2019-02-15T00:35:45.839Z,93.84
2019-02-15T00:36:46.112Z,94.15
2019-02-15T00:37:46.365Z,94.15
2019-02-15T00:38:46.529Z,94.09
2019-02-15T00:39:46.779Z,94.46
2019-02-15T00:40:46.999Z,94.29
2019-02-15T00:41:47.239Z,94.09
2019-02-15T00:42:47.432Z,94.50
2019-02-15T00:43:47.679Z,93.98
2019-02-15T00:44:47.946Z,94.40
2019-02-15T00:45:48.321Z,94.19
2019-02-15T00:46:48.403Z,94.19
2019-02-15T00:47:48.612Z,94.65
2019-02-15T00:48:49.095Z,94.65
2019-02-15T00:49:49.094Z,95.07
2019-02-15T00:50:49.325Z,94.76
2019-02-15T00:51:49.579Z,95.17
2019-02-15T00:52:49.774Z,96.22
2019-02-15T00:53:50.084Z,95.90
2019-02-15T00:54:50.243Z,95.80
2019-02-15T00:55:50.456Z,96.33
2019-02-15T00:56:50.706Z,96.33
2019-02-15T00:57:50.934Z,96.11
2019-02-15T00:58:51.152Z,96.33
2019-02-15T00:59:51.390Z,96.28
2019-02-15T01:00:51.628Z,96.17
2019-02-15T01:01:51.898Z,96.17
2019-02-15T01:02:52.085Z,95.86
2019-02-15T01:03:52.322Z,96.11
2019-02-15T01:04:52.553Z,95.97
2019-02-15T01:05:52.783Z,95.90
2019-02-15T01:06:53.047Z,95.90
2019-02-15T01:07:53.278Z,95.90
2019-02-15T01:08:53.486Z,96.01
2019-02-15T01:09:53.796Z,96.01
2019-02-15T01:10:53.918Z,96.11
2019-02-15T01:11:54.202Z,95.80
2019-02-15T01:12:54.430Z,96.26
2019-02-15T01:13:54.642Z,96.05
2019-02-15T01:14:54.890Z,95.64
2019-02-15T01:15:55.104Z,96.05
2019-02-15T01:16:55.328Z,96.33
2019-02-15T01:17:55.611Z,96.53
2019-02-15T01:18:55.920Z,96.37
2019-02-15T01:19:56.056Z,96.78
2019-02-15T01:20:56.269Z,96.58
2019-02-15T01:21:56.520Z,96.89
2019-02-15T01:22:56.746Z,96.64
2019-02-15T01:23:56.960Z,97.10
2019-02-15T01:24:57.206Z,97.16
2019-02-15T01:25:57.420Z,97.20
2019-02-15T01:26:57.753Z,97.41
2019-02-15T01:27:57.893Z,97.10
2019-02-15T01:28:58.108Z,97.20
2019-02-15T01:29:58.358Z,96.68
2019-02-15T01:30:58.577Z,96.78
2019-02-15T01:31:58.830Z,96.68
2019-02-15T01:32:59.034Z,96.68
2019-02-15T01:33:59.269Z,97.00
2019-02-15T01:34:59.632Z,96.89
2019-02-15T01:35:59.731Z,97.10
2019-02-15T01:36:59.984Z,96.78
2019-02-15T01:38:00.192Z,96.58
2019-02-15T01:39:00.427Z,96.78
2019-02-15T01:40:00.677Z,96.78
2019-02-15T01:41:00.888Z,96.68
2019-02-15T01:42:01.223Z,96.58
2019-02-15T01:43:01.403Z,96.68
2019-02-15T01:44:01.546Z,96.37
2019-02-15T01:45:01.818Z,96.58
2019-02-15T01:46:02.043Z,96.68
2019-02-15T01:47:02.273Z,96.26
2019-02-15T01:48:02.544Z,96.47
2019-02-15T01:49:02.728Z,96.16
2019-02-15T01:50:02.969Z,95.95
2019-02-15T01:51:03.263Z,95.84
2019-02-15T01:52:03.474Z,96.05
2019-02-15T01:53:03.674Z,96.05
2019-02-15T01:54:03.896Z,96.16
2019-02-15T01:55:04.101Z,96.05
2019-02-15T01:56:04.330Z,96.58
2019-02-15T01:57:04.588Z,96.68
2019-02-15T01:58:04.838Z,97.14
2019-02-15T01:59:05.046Z,96.68
2019-02-15T02:00:05.399Z,96.72
2019-02-15T02:01:05.522Z,96.83
2019-02-15T02:02:05.762Z,97.04
2019-02-15T02:03:06.047Z,97.04
2019-02-15T02:04:06.222Z,96.72
2019-02-15T02:05:06.452Z,97.35
2019-02-15T02:06:06.676Z,97.45
2019-02-15T02:07:06.923Z,97.88
2019-02-15T02:08:07.341Z,97.77
2019-02-15T02:09:07.410Z,97.88
2019-02-15T02:10:07.624Z,97.88
2019-02-15T02:11:07.854Z,97.56
2019-02-15T02:12:08.105Z,97.67
2019-02-15T02:13:08.336Z,98.08
2019-02-15T02:14:08.548Z,97.94
2019-02-15T02:15:08.780Z,97.94
2019-02-15T02:16:09.041Z,98.08
2019-02-15T02:17:09.226Z,97.83
2019-02-15T02:18:09.475Z,97.41
2019-02-15T02:19:09.691Z,97.14
2019-02-15T02:20:09.925Z,96.62
2019-02-15T02:21:10.170Z,96.83
2019-02-15T02:22:10.388Z,96.83
2019-02-15T02:23:10.620Z,96.83
2019-02-15T02:24:10.943Z,96.94
2019-02-15T02:25:11.073Z,96.72
2019-02-15T02:26:11.541Z,96.31
2019-02-15T02:27:11.534Z,96.51
2019-02-15T02:28:11.792Z,96.62
2019-02-15T02:29:12.002Z,96.58
2019-02-15T02:30:12.247Z,96.72
2019-02-15T02:31:12.505Z,96.41
2019-02-15T02:32:12.736Z,96.20
2019-02-15T02:33:13.011Z,96.51
2019-02-15T02:34:13.175Z,96.72
2019-02-15T02:35:13.402Z,96.72
2019-02-15T02:36:13.663Z,96.47
2019-02-15T02:37:13.879Z,96.78
2019-02-15T02:38:14.146Z,96.26
2019-02-15T02:39:14.340Z,95.95
2019-02-15T02:40:14.569Z,96.26
2019-02-15T02:41:14.951Z,95.89
2019-02-15T02:42:15.082Z,95.95
2019-02-15T02:43:15.344Z,95.89
2019-02-15T02:44:15.538Z,96.20
2019-02-15T02:45:15.750Z,96.31
2019-02-15T02:46:16.016Z,94.74
2019-02-15T02:47:16.243Z,95.47
2019-02-15T02:48:16.522Z,96.10
2019-02-15T02:49:16.817Z,96.04
2019-02-15T02:50:16.914Z,95.99
2019-02-15T02:51:17.174Z,96.04
2019-02-15T02:52:17.399Z,96.14
2019-02-15T02:53:17.647Z,96.25
2019-02-15T02:54:17.858Z,96.45
2019-02-15T02:55:18.088Z,96.56
2019-02-15T02:56:18.328Z,96.45
2019-02-15T02:57:18.570Z,96.88
2019-02-15T02:58:18.768Z,96.66
2019-02-15T02:59:18.984Z,96.25
2019-02-15T03:00:19.236Z,96.35
2019-02-15T03:01:19.470Z,96.45
2019-02-15T03:02:19.669Z,96.66
2019-02-15T03:03:19.935Z,96.88
2019-02-15T03:04:20.167Z,96.77
2019-02-15T03:05:20.453Z,96.56
2019-02-15T03:06:20.620Z,96.45
2019-02-15T03:07:20.844Z,96.88
2019-02-15T03:08:21.078Z,96.66
2019-02-15T03:09:21.333Z,97.13
2019-02-15T03:10:21.610Z,97.13
2019-02-15T03:11:21.823Z,97.13
2019-02-15T03:12:22.039Z,97.23
2019-02-15T03:13:22.291Z,97.44
2019-02-15T03:14:22.608Z,97.96
2019-02-15T03:15:22.771Z,97.91
2019-02-15T03:16:23.001Z,97.96
2019-02-15T03:17:23.219Z,97.69
2019-02-15T03:18:23.467Z,97.69
2019-02-15T03:19:23.675Z,98.01
2019-02-15T03:20:30.827Z,97.69
2019-02-15T03:21:25.174Z,98.22
2019-02-15T03:22:24.496Z,98.22
2019-02-15T03:23:24.616Z,98.01
2019-02-15T03:24:24.837Z,98.01
2019-02-15T03:25:25.088Z,98.11
2019-02-15T03:26:25.329Z,98.22
2019-02-15T03:27:25.554Z,98.32
2019-02-15T03:28:25.772Z,98.54
2019-02-15T03:29:26.019Z,98.54
2019-02-15T03:30:26.291Z,98.32
2019-02-15T03:31:26.486Z,98.22
2019-02-15T03:32:26.686Z,98.43
2019-02-15T03:33:26.937Z,98.54
2019-02-15T03:34:27.171Z,98.74
2019-02-15T03:35:27.360Z,98.32
2019-02-15T03:36:27.616Z,98.54
2019-02-15T03:37:27.839Z,98.68
2019-02-15T03:38:28.167Z,98.64
2019-02-15T03:39:28.304Z,98.32
2019-02-15T03:40:28.521Z,98.64
2019-02-15T03:41:28.788Z,99.10
2019-02-15T03:42:28.966Z,98.85
2019-02-15T03:43:29.201Z,98.54
2019-02-15T03:44:29.462Z,98.22
2019-02-15T03:45:29.676Z,98.54
2019-02-15T03:46:29.993Z,98.64
2019-02-15T03:47:30.141Z,98.89
2019-02-15T03:48:30.409Z,98.74
2019-02-15T03:49:30.623Z,99.05
2019-02-15T03:50:30.841Z,98.74
2019-02-15T03:51:31.088Z,98.64
2019-02-15T03:52:31.294Z,98.95
2019-02-15T03:53:31.528Z,99.27
2019-02-15T03:54:31.792Z,99.58
2019-02-15T03:55:32.081Z,98.74
2019-02-15T03:56:32.256Z,99.01
2019-02-15T03:57:32.428Z,98.69
2019-02-15T03:58:32.660Z,98.80
2019-02-15T03:59:32.924Z,98.80
2019-02-15T04:00:33.137Z,98.91
2019-02-15T04:01:33.429Z,98.69
2019-02-15T04:02:33.595Z,97.96
2019-02-15T04:03:34.064Z,98.59
2019-02-15T04:04:34.407Z,98.38
2019-02-15T04:05:34.401Z,98.49
2019-02-15T04:06:34.657Z,98.49
2019-02-15T04:07:34.859Z,98.54
2019-02-15T04:08:35.099Z,98.54
2019-02-15T04:09:35.321Z,98.11
2019-02-15T04:10:35.563Z,98.11
2019-02-15T04:11:35.863Z,98.32
2019-02-15T04:12:35.993Z,98.22
2019-02-15T04:13:36.229Z,98.22
2019-02-15T04:14:36.484Z,98.32
2019-02-15T04:15:36.677Z,98.22
2019-02-15T04:16:36.929Z,98.43
2019-02-15T04:17:37.149Z,98.22
2019-02-15T04:18:37.408Z,98.01
2019-02-15T04:19:37.655Z,98.11
2019-02-15T04:20:37.802Z,98.01
2019-02-15T04:21:38.094Z,98.68
2019-02-15T04:22:38.315Z,98.54
2019-02-15T04:23:38.566Z,98.74
2019-02-15T04:24:38.802Z,98.68
2019-02-15T04:25:39.044Z,98.11
2019-02-15T04:26:39.234Z,98.58
2019-02-15T04:27:39.521Z,98.54
2019-02-15T04:28:39.769Z,98.68
2019-02-15T04:29:39.975Z,98.58
2019-02-15T04:30:40.188Z,98.58
2019-02-15T04:31:40.437Z,99.00
2019-02-15T04:32:40.647Z,99.00
2019-02-15T04:33:40.879Z,99.10
2019-02-15T04:34:41.122Z,99.00
2019-02-15T04:35:41.356Z,99.00
2019-02-15T04:36:41.718Z,99.10
2019-02-15T04:37:41.819Z,99.05
2019-02-15T04:38:42.052Z,99.16
2019-02-15T04:39:42.296Z,98.89
2019-02-15T04:40:42.505Z,98.68
2019-02-15T04:41:42.763Z,99.10
2019-02-15T04:42:42.980Z,99.10
2019-02-15T04:43:43.190Z,99.00
2019-02-15T04:44:43.544Z,99.10
2019-02-15T04:45:43.665Z,99.10
2019-02-15T04:46:43.911Z,98.68
2019-02-15T04:47:44.138Z,99.15
2019-02-15T04:48:44.333Z,98.94
2019-02-15T04:49:44.617Z,98.94
2019-02-15T04:50:44.811Z,98.83
2019-02-15T04:51:45.044Z,99.21
2019-02-15T04:52:45.322Z,98.94
2019-02-15T04:53:45.466Z,99.46
2019-02-15T04:54:45.734Z,99.63
2019-02-15T04:55:45.951Z,99.88
2019-02-15T04:56:46.180Z,99.94
2019-02-15T04:57:46.439Z,99.46
2019-02-15T04:58:46.648Z,99.46
2019-02-15T04:59:46.915Z,99.67
2019-02-15T05:00:47.113Z,99.88
2019-02-15T05:01:47.313Z,99.88
2019-02-15T05:02:47.587Z,99.88
2019-02-15T05:03:47.791Z,99.57
2019-02-15T05:04:48.067Z,99.35
2019-02-15T05:05:48.233Z,99.88
2019-02-15T05:06:48.468Z,99.98
2019-02-15T05:07:48.728Z,99.98
2019-02-15T05:08:48.980Z,99.88
2019-02-15T05:09:49.282Z,99.88
2019-02-15T05:10:49.402Z,99.88
2019-02-15T05:11:49.632Z,99.88
2019-02-15T05:12:49.910Z,99.98
2019-02-15T05:13:50.118Z,99.77
2019-02-15T05:14:53.097Z,99.98
2019-02-15T05:15:50.577Z,99.88
2019-02-15T05:16:50.794Z,99.88
2019-02-15T05:17:51.197Z,99.77
2019-02-15T05:18:51.281Z,99.67
2019-02-15T05:19:51.541Z,99.77
2019-02-15T05:20:51.755Z,99.67
2019-02-15T05:21:51.951Z,99.46
2019-02-15T05:22:52.501Z,98.94
2019-02-15T05:23:52.458Z,99.67
2019-02-15T05:24:52.686Z,99.77
2019-02-15T05:25:52.990Z,99.67
2019-02-15T05:26:53.120Z,99.46
2019-02-15T05:27:53.381Z,99.04
2019-02-15T05:28:53.600Z,99.35
2019-02-15T05:29:53.835Z,99.21
2019-02-15T05:30:54.077Z,99.46
2019-02-15T05:31:54.306Z,99.41
2019-02-15T05:32:54.584Z,99.41
2019-02-15T05:33:54.791Z,99.00
2019-02-15T05:34:54.993Z,99.04
2019-02-15T05:35:55.233Z,99.00
2019-02-15T05:36:55.444Z,99.15
2019-02-15T05:37:55.695Z,99.04
2019-02-15T05:38:55.903Z,98.94
2019-02-15T05:39:56.128Z,99.15
2019-02-15T05:40:56.376Z,99.15
2019-02-15T05:41:56.633Z,99.04
2019-02-15T05:42:57.093Z,99.04
2019-02-15T05:43:57.075Z,99.04
2019-02-15T05:45:03.314Z,99.15
2019-02-15T05:45:58.564Z,99.25
2019-02-15T05:46:57.774Z,99.15
2019-02-15T05:47:58.047Z,99.04
2019-02-15T05:48:58.242Z,99.15
2019-02-15T05:49:58.496Z,98.83
2019-02-15T05:50:58.811Z,98.83
2019-02-15T05:51:58.935Z,99.04
2019-02-15T05:52:59.194Z,98.72
2019-02-15T05:53:59.394Z,99.04
2019-02-15T05:54:59.622Z,99.15
2019-02-15T05:55:59.854Z,99.04
2019-02-15T05:57:00.087Z,99.04
2019-02-15T05:58:00.370Z,98.21
2019-02-15T05:59:00.689Z,99.15
2019-02-15T06:00:00.788Z,98.83
2019-02-15T06:01:01.017Z,98.94
2019-02-15T06:02:01.244Z,99.15
2019-02-15T06:03:01.520Z,99.04
2019-02-15T06:04:01.712Z,99.15
2019-02-15T06:05:01.951Z,99.04
2019-02-15T06:06:02.199Z,99.15
2019-02-15T06:07:02.448Z,98.83
2019-02-15T06:08:02.669Z,99.19
2019-02-15T06:09:02.866Z,99.19
2019-02-15T06:10:03.113Z,98.98
2019-02-15T06:11:07.515Z,98.88
2019-02-15T06:12:03.543Z,99.40
2019-02-15T06:13:03.790Z,99.08
2019-02-15T06:14:04.022Z,99.61
2019-02-15T06:15:14.439Z,99.88
2019-02-15T06:16:05.483Z,99.71
2019-02-15T06:17:04.698Z,99.93
2019-02-15T06:18:04.934Z,99.71
2019-02-15T06:19:05.156Z,99.40
2019-02-15T06:20:05.413Z,99.30
2019-02-15T06:21:05.652Z,99.61
2019-02-15T06:22:05.872Z,99.99
2019-02-15T06:23:06.165Z,99.99
2019-02-15T06:24:06.408Z,99.51
2019-02-15T06:25:06.590Z,99.99
2019-02-15T06:26:06.820Z,99.40
2019-02-15T06:27:07.024Z,99.99
2019-02-15T06:28:07.287Z,99.61
2019-02-15T06:29:07.491Z,99.30
2019-02-15T06:30:07.710Z,99.51
2019-02-15T06:31:07.986Z,99.40
2019-02-15T06:32:08.320Z,99.57
2019-02-15T06:33:08.436Z,99.57
2019-02-15T06:34:08.658Z,99.46
2019-02-15T06:35:08.919Z,99.35
2019-02-15T06:36:09.163Z,99.25
2019-02-15T06:37:09.378Z,99.67
2019-02-15T06:38:09.603Z,99.46
2019-02-15T06:39:09.854Z,99.98
2019-02-15T06:40:10.168Z,99.88
2019-02-15T06:41:12.178Z,99.73
2019-02-15T06:42:10.546Z,99.84
2019-02-15T06:43:10.784Z,99.41
2019-02-15T06:44:11.036Z,99.10
2019-02-15T06:45:11.228Z,99.27
2019-02-15T06:46:11.496Z,98.89
2019-02-15T06:47:11.704Z,98.85
2019-02-15T06:48:11.972Z,98.47
2019-02-15T06:49:12.236Z,98.58
2019-02-15T06:50:12.371Z,98.58
2019-02-15T06:51:12.638Z,98.58
2019-02-15T06:52:12.867Z,98.58
2019-02-15T06:53:13.098Z,99.21
2019-02-15T06:54:13.355Z,99.00
2019-02-15T06:55:13.556Z,98.89
2019-02-15T06:56:13.862Z,98.74
2019-02-15T06:57:13.977Z,98.95
2019-02-15T06:58:14.224Z,98.59
2019-02-15T06:59:14.493Z,98.49
2019-02-15T07:00:14.686Z,98.38
2019-02-15T07:01:14.937Z,97.96
2019-02-15T07:02:15.169Z,98.07
2019-02-15T07:03:15.375Z,98.18
2019-02-15T07:04:15.685Z,98.38
2019-02-15T07:05:15.915Z,98.18
2019-02-15T07:06:16.096Z,98.07
2019-02-15T07:07:16.291Z,97.96
2019-02-15T07:08:16.522Z,98.07
2019-02-15T07:09:16.790Z,97.96
2019-02-15T07:10:17.002Z,98.02
2019-02-15T07:11:17.245Z,97.92
2019-02-15T07:12:17.472Z,98.02
2019-02-15T07:13:17.804Z,97.92
2019-02-15T07:14:17.943Z,98.02
2019-02-15T07:15:18.147Z,98.02
2019-02-15T07:16:18.397Z,98.08
2019-02-15T07:17:18.654Z,97.81
2019-02-15T07:18:18.820Z,97.88
2019-02-15T07:19:19.074Z,97.71
2019-02-15T07:20:19.298Z,97.56
2019-02-15T07:21:19.921Z,97.88
2019-02-15T07:22:19.761Z,97.10
2019-02-15T07:23:20.018Z,96.78
2019-02-15T07:24:20.240Z,96.37
2019-02-15T07:25:20.464Z,96.37
2019-02-15T07:26:20.715Z,95.95
2019-02-15T07:27:20.927Z,96.22
2019-02-15T07:28:21.157Z,95.17
2019-02-15T07:29:21.450Z,94.86
2019-02-15T07:30:21.600Z,94.50
2019-02-15T07:31:21.854Z,94.44
2019-02-15T07:32:22.083Z,94.29
2019-02-15T07:33:22.311Z,94.29
2019-02-15T07:34:22.584Z,94.40
2019-02-15T07:35:22.781Z,93.88
2019-02-15T07:36:22.996Z,94.19
2019-02-15T07:37:23.300Z,94.40
2019-02-15T07:38:23.461Z,93.73
2019-02-15T07:39:23.717Z,93.21
2019-02-15T07:40:23.938Z,93.52
2019-02-15T07:41:24.151Z,93.31
2019-02-15T07:42:24.416Z,93.21
2019-02-15T07:43:24.662Z,93.31
2019-02-15T07:44:24.936Z,92.37
2019-02-15T07:45:25.147Z,92.22
2019-02-15T07:46:25.413Z,92.22
2019-02-15T07:47:25.649Z,92.22
2019-02-15T07:48:25.811Z,91.77
2019-02-15T07:49:26.796Z,91.71
2019-02-15T07:50:26.309Z,91.46
2019-02-15T07:51:26.520Z,91.46
2019-02-15T07:52:26.735Z,91.10
2019-02-15T07:53:26.982Z,90.89
2019-02-15T07:54:27.361Z,90.79
2019-02-15T07:55:27.466Z,90.75
2019-02-15T07:56:27.679Z,90.26
2019-02-15T07:57:27.907Z,89.64
2019-02-15T07:58:28.132Z,88.35
2019-02-15T07:59:28.378Z,88.10
2019-02-15T08:00:28.625Z,87.48
2019-02-15T08:01:28.834Z,87.20
2019-02-15T08:02:29.144Z,86.75
2019-02-15T08:03:29.283Z,87.27
2019-02-15T08:04:29.533Z,87.27
2019-02-15T08:05:29.757Z,86.60
2019-02-15T08:06:29.977Z,86.91
2019-02-15T08:07:30.234Z,87.02
2019-02-15T08:08:30.434Z,86.91
2019-02-15T08:09:30.686Z,85.56
2019-02-15T08:10:30.961Z,85.42
2019-02-15T08:11:31.110Z,85.42
2019-02-15T08:12:31.369Z,84.80
2019-02-15T08:13:31.580Z,84.80
2019-02-15T08:14:31.823Z,84.90
2019-02-15T08:15:36.226Z,83.96
2019-02-15T08:16:32.289Z,84.55
2019-02-15T08:17:32.516Z,83.61
2019-02-15T08:18:32.787Z,83.51
2019-02-15T08:19:32.952Z,82.74
2019-02-15T08:20:33.181Z,82.84
2019-02-15T08:21:33.427Z,82.43
2019-02-15T08:22:33.670Z,82.64
2019-02-15T08:23:33.883Z,82.22
2019-02-15T08:24:34.130Z,82.01
2019-02-15T08:25:34.357Z,81.77
2019-02-15T08:26:34.632Z,81.35
2019-02-15T08:27:34.908Z,81.52
2019-02-15T08:28:35.043Z,81.15
2019-02-15T08:29:35.285Z,80.83
2019-02-15T08:30:35.498Z,80.69
2019-02-15T08:31:35.749Z,81.11
2019-02-15T08:32:35.993Z,80.49
2019-02-15T08:33:36.207Z,79.72
2019-02-15T08:34:36.456Z,79.83
2019-02-15T08:35:36.816Z,79.93
2019-02-15T08:36:36.928Z,80.45
2019-02-15T08:37:37.181Z,80.24
2019-02-15T08:38:37.395Z,79.69
2019-02-15T08:39:37.630Z,78.99
2019-02-15T08:40:37.889Z,78.96
2019-02-15T08:41:38.085Z,78.75
2019-02-15T08:42:38.337Z,79.17
2019-02-15T08:43:38.673Z,79.13
2019-02-15T08:44:38.783Z,79.55
2019-02-15T08:45:39.032Z,78.61
2019-02-15T08:46:39.272Z,78.13
2019-02-15T08:47:39.784Z,77.78
2019-02-15T08:48:45.951Z,79.03
2019-02-15T08:49:40.956Z,78.16
2019-02-15T08:50:40.224Z,78.06
2019-02-15T08:51:40.461Z,77.58
2019-02-15T08:52:40.630Z,77.85
2019-02-15T08:53:40.851Z,77.54
2019-02-15T08:54:41.095Z,77.02
2019-02-15T08:55:41.337Z,76.40
2019-02-15T08:56:41.558Z,76.36
2019-02-15T08:57:41.801Z,76.46
2019-02-15T08:58:42.017Z,76.67
2019-02-15T08:59:42.263Z,75.63
2019-02-15T09:00:42.774Z,76.36
2019-02-15T09:01:42.720Z,76.26
2019-02-15T09:02:42.965Z,75.95
2019-02-15T09:03:43.165Z,76.23
2019-02-15T09:04:43.393Z,75.95
2019-02-15T09:05:43.649Z,76.23
2019-02-15T09:06:43.877Z,75.71
2019-02-15T09:07:44.150Z,75.92
2019-02-15T09:08:44.426Z,76.12
2019-02-15T09:09:44.544Z,76.12
2019-02-15T09:10:44.807Z,76.23
2019-02-15T09:11:45.019Z,76.23
2019-02-15T09:12:45.263Z,75.15
2019-02-15T09:13:45.484Z,74.74
2019-02-15T09:14:45.702Z,75.15
2019-02-15T09:15:45.944Z,74.74
2019-02-15T09:16:46.264Z,74.74
2019-02-15T09:17:46.416Z,74.08
2019-02-15T09:18:46.634Z,73.98
2019-02-15T09:19:47.044Z,73.77
2019-02-15T09:20:47.122Z,73.67
2019-02-15T09:21:47.339Z,73.36
2019-02-15T09:22:47.589Z,73.84
2019-02-15T09:23:47.802Z,72.91
2019-02-15T09:24:48.059Z,73.94
2019-02-15T09:25:48.263Z,74.77
2019-02-15T09:26:48.498Z,73.84
2019-02-15T09:27:48.727Z,74.88
2019-02-15T09:28:48.942Z,74.77
2019-02-15T09:29:49.177Z,73.19
2019-02-15T09:30:49.422Z,73.39
2019-02-15T09:31:49.635Z,72.67
2019-02-15T09:32:49.955Z,73.08
2019-02-15T09:33:50.093Z,72.78
2019-02-15T09:34:50.324Z,73.81
2019-02-15T09:35:50.572Z,72.47
2019-02-15T09:36:50.808Z,72.57
2019-02-15T09:37:51.031Z,72.22
2019-02-15T09:38:51.253Z,71.61
2019-02-15T09:39:51.493Z,71.92
2019-02-15T09:40:51.779Z,71.47
2019-02-15T09:41:52.032Z,71.16
2019-02-15T09:42:52.178Z,70.85
2019-02-15T09:43:52.424Z,69.71
2019-02-15T09:44:52.646Z,70.85
2019-02-15T09:45:52.903Z,72.09
2019-02-15T09:46:53.128Z,70.95
2019-02-15T09:47:53.351Z,69.92
2019-02-15T09:48:53.617Z,70.54
2019-02-15T09:49:53.901Z,69.61
2019-02-15T09:50:54.068Z,70.54
2019-02-15T09:51:55.507Z,68.96
2019-02-15T09:52:54.497Z,69.99
2019-02-15T09:53:54.740Z,68.44
2019-02-15T09:54:54.992Z,68.72
2019-02-15T09:55:55.237Z,68.72
2019-02-15T09:56:55.503Z,67.45
2019-02-15T09:57:55.776Z,67.35
2019-02-15T09:58:55.908Z,67.93
2019-02-15T09:59:56.132Z,66.80
2019-02-15T10:00:56.385Z,65.77
2019-02-15T10:01:56.610Z,65.88
2019-02-15T10:02:56.830Z,64.74
2019-02-15T10:03:57.081Z,64.50
2019-02-15T10:04:57.276Z,65.05
2019-02-15T10:05:57.587Z,65.02
2019-02-15T10:06:57.745Z,64.50
2019-02-15T10:07:57.973Z,64.71
2019-02-15T10:08:58.220Z,64.19
2019-02-15T10:09:58.420Z,63.27
2019-02-15T10:10:58.674Z,63.24
2019-02-15T10:11:58.912Z,62.10
2019-02-15T10:12:59.128Z,62.93
2019-02-15T10:13:59.430Z,62.21
2019-02-15T10:14:59.581Z,62.49
2019-02-15T10:15:59.808Z,62.90
2019-02-15T10:17:00.027Z,61.22
2019-02-15T10:18:00.273Z,61.77
2019-02-15T10:19:00.529Z,61.43
2019-02-15T10:20:00.755Z,60.91
2019-02-15T10:21:00.974Z,60.81
2019-02-15T10:22:01.207Z,60.40
2019-02-15T10:23:01.483Z,60.61
2019-02-15T10:24:01.695Z,60.40
2019-02-15T10:25:01.932Z,59.75
2019-02-15T10:26:02.148Z,60.17
2019-02-15T10:27:02.358Z,60.37
2019-02-15T10:28:02.599Z,60.47
2019-02-15T10:29:02.861Z,59.73
2019-02-15T10:30:03.079Z,59.65
2019-02-15T10:31:03.449Z,60.03
2019-02-15T10:32:03.566Z,58.39
2019-02-15T10:33:03.792Z,58.18
2019-02-15T10:34:04.034Z,58.78
2019-02-15T10:35:04.279Z,58.26
2019-02-15T10:36:04.497Z,58.26
2019-02-15T10:37:04.704Z,58.16
2019-02-15T10:38:04.927Z,57.85
2019-02-15T10:39:05.521Z,57.54
2019-02-15T10:40:05.417Z,58.26
2019-02-15T10:41:05.633Z,57.62
2019-02-15T10:42:05.854Z,57.00
2019-02-15T10:43:06.069Z,57.00
2019-02-15T10:44:06.317Z,57.21
2019-02-15T10:45:06.557Z,56.36
2019-02-15T10:46:06.776Z,56.77
2019-02-15T10:47:13.870Z,56.15
2019-02-15T10:48:08.224Z,55.54
2019-02-15T10:49:07.464Z,55.74
2019-02-15T10:50:07.683Z,55.54
2019-02-15T10:51:07.919Z,55.62
2019-02-15T10:52:08.178Z,55.41
2019-02-15T10:53:08.402Z,53.97
2019-02-15T10:54:08.644Z,52.72
2019-02-15T10:55:08.929Z,52.20
2019-02-15T10:56:09.076Z,52.00
2019-02-15T10:57:09.366Z,52.00
2019-02-15T10:58:09.583Z,52.39
2019-02-15T10:59:11.122Z,51.26
2019-02-15T11:00:10.053Z,52.28
2019-02-15T11:01:10.260Z,51.67
2019-02-15T11:02:10.510Z,50.52
2019-02-15T11:03:10.756Z,50.93
2019-02-15T11:04:11.076Z,50.31
2019-02-15T11:05:11.215Z,50.82
2019-02-15T11:06:11.411Z,50.42
2019-02-15T11:07:11.711Z,51.54
2019-02-15T11:08:11.888Z,51.44
2019-02-15T11:09:12.135Z,50.21
2019-02-15T11:10:12.352Z,50.01
2019-02-15T11:11:12.582Z,49.18
2019-02-15T11:12:12.935Z,49.57
2019-02-15T11:13:13.034Z,49.47
2019-02-15T11:14:13.291Z,48.85
2019-02-15T11:15:13.498Z,48.14
2019-02-15T11:16:13.732Z,47.52
2019-02-15T11:17:13.989Z,47.09
2019-02-15T11:18:14.202Z,46.68
2019-02-15T11:19:14.464Z,47.78
2019-02-15T11:20:14.789Z,47.68
2019-02-15T11:21:14.957Z,47.40
2019-02-15T11:22:22.113Z,48.19
2019-02-15T11:23:15.417Z,47.27
2019-02-15T11:24:15.609Z,46.45
2019-02-15T11:25:15.824Z,47.07
2019-02-15T11:26:24.275Z,46.74
2019-02-15T11:27:22.974Z,47.15
2019-02-15T11:28:16.556Z,46.84
2019-02-15T11:29:16.736Z,46.03
2019-02-15T11:30:16.973Z,45.61
2019-02-15T11:31:17.206Z,45.41
2019-02-15T11:32:17.472Z,45.70
2019-02-15T11:33:17.677Z,44.17
2019-02-15T11:34:17.909Z,43.96
2019-02-15T11:35:18.109Z,43.76
2019-02-15T11:36:18.447Z,43.55
2019-02-15T11:37:18.625Z,44.78
2019-02-15T11:38:18.831Z,43.85
2019-02-15T11:39:19.073Z,43.44
2019-02-15T11:40:19.285Z,44.57
2019-02-15T11:41:19.545Z,43.24
2019-02-15T11:42:19.779Z,43.02
2019-02-15T11:43:19.987Z,43.32
2019-02-15T11:44:20.258Z,43.12
2019-02-15T11:45:20.556Z,42.81
2019-02-15T11:46:20.719Z,41.59
2019-02-15T11:47:20.941Z,42.00
2019-02-15T11:48:21.150Z,41.77
2019-02-15T11:49:21.430Z,40.24
2019-02-15T11:50:21.609Z,40.85
2019-02-15T11:51:21.851Z,41.36
2019-02-15T11:52:22.088Z,41.47
2019-02-15T11:53:22.437Z,40.03
2019-02-15T11:54:23.670Z,38.50
2019-02-15T11:55:22.758Z,38.09
2019-02-15T11:56:22.999Z,39.22
2019-02-15T11:57:23.253Z,38.59
2019-02-15T11:58:23.467Z,38.30
2019-02-15T11:59:23.698Z,38.18
2019-02-15T12:00:23.942Z,38.48
2019-02-15T12:01:24.261Z,38.39
2019-02-15T12:02:24.424Z,38.48
2019-02-15T12:03:24.652Z,38.39
2019-02-15T12:04:24.878Z,38.39
2019-02-15T12:05:25.119Z,38.18
2019-02-15T12:06:25.335Z,37.45
2019-02-15T12:07:25.581Z,37.87
2019-02-15T12:08:25.786Z,37.46
2019-02-15T12:09:26.051Z,37.55
2019-02-15T12:10:26.259Z,36.22
2019-02-15T12:11:26.479Z,37.04
2019-02-15T12:12:26.726Z,36.53
2019-02-15T12:13:26.927Z,36.02
2019-02-15T12:14:27.151Z,36.22
2019-02-15T12:15:27.419Z,36.51
2019-02-15T12:16:27.872Z,34.58
2019-02-15T12:17:27.919Z,34.47
2019-02-15T12:18:28.163Z,34.27
2019-02-15T12:19:28.317Z,33.65
2019-02-15T12:20:28.575Z,32.84
2019-02-15T12:21:28.796Z,33.45
2019-02-15T12:22:29.045Z,33.96
2019-02-15T12:23:29.264Z,33.96
2019-02-15T12:24:29.485Z,33.23
2019-02-15T12:25:29.727Z,33.44
2019-02-15T12:26:30.075Z,33.33
2019-02-15T12:27:30.193Z,33.03
2019-02-15T12:28:30.639Z,33.03
2019-02-15T12:29:30.637Z,33.03
2019-02-15T12:30:30.869Z,31.91
2019-02-15T12:31:31.109Z,32.72
2019-02-15T12:32:31.344Z,33.03
2019-02-15T12:33:31.566Z,33.01
2019-02-15T12:34:32.141Z,31.81
2019-02-15T12:35:32.037Z,31.50
2019-02-15T12:36:32.264Z,31.81
2019-02-15T12:37:32.517Z,32.21
2019-02-15T12:38:32.760Z,32.10
2019-02-15T12:39:32.961Z,32.20
2019-02-15T12:40:33.207Z,31.79
2019-02-15T12:41:33.398Z,31.81
2019-02-15T12:42:33.718Z,32.40
2019-02-15T12:43:33.868Z,31.59
2019-02-15T12:44:34.102Z,31.48
2019-02-15T12:45:34.347Z,31.38
2019-02-15T12:46:34.548Z,31.59
2019-02-15T12:47:34.817Z,31.98
2019-02-15T12:48:35.046Z,31.48
2019-02-15T12:49:35.252Z,31.57
2019-02-15T12:50:35.557Z,31.38
2019-02-15T12:51:35.691Z,31.99
2019-02-15T12:52:35.936Z,31.37
2019-02-15T12:53:36.165Z,31.38
2019-02-15T12:54:36.386Z,31.69
2019-02-15T12:55:36.638Z,32.18